sensor_id;sensor_type;location;lat;lon;timestamp;P1;durP1;ratioP1;P2;durP2;ratioP2
7100;SDS011;67978;48.710;8.720;2023-02-28T00:00:30;5.50;;;1.97;;
7100;SDS011;67978;48.710;8.720;2023-02-28T00:02:56;2.33;;;1.73;;
7100;SDS011;67978;48.710;8.720;2023-02-28T00:05:24;4.20;;;2.00;;
7100;SDS011;67978;48.710;8.720;2023-02-28T00:07:53;3.60;;;1.70;;
7100;SDS011;67978;48.710;8.720;2023-02-28T00:10:23;3.30;;;1.60;;
7100;SDS011;67978;48.710;8.720;2023-02-28T00:12:52;2.30;;;1.57;;
7100;SDS011;67978;48.710;8.720;2023-02-28T00:15:22;3.03;;;1.70;;
7100;SDS011;67978;48.710;8.720;2023-02-28T00:17:49;3.77;;;1.90;;
7100;SDS011;67978;48.710;8.720;2023-02-28T00:20:17;2.13;;;1.50;;
7100;SDS011;67978;48.710;8.720;2023-02-28T00:22:45;2.73;;;1.60;;
7100;SDS011;67978;48.710;8.720;2023-02-28T00:25:16;1.90;;;1.40;;
7100;SDS011;67978;48.710;8.720;2023-02-28T00:27:46;3.00;;;1.90;;
7100;SDS011;67978;48.710;8.720;2023-02-28T00:30:15;2.13;;;1.70;;
7100;SDS011;67978;48.710;8.720;2023-02-28T00:32:44;3.17;;;1.97;;
7100;SDS011;67978;48.710;8.720;2023-02-28T00:35:11;4.23;;;1.90;;
7100;SDS011;67978;48.710;8.720;2023-02-28T00:37:38;3.00;;;1.40;;
7100;SDS011;67978;48.710;8.720;2023-02-28T00:40:06;3.23;;;1.40;;
7100;SDS011;67978;48.710;8.720;2023-02-28T00:42:36;4.17;;;1.80;;
7100;SDS011;67978;48.710;8.720;2023-02-28T00:45:04;2.87;;;1.93;;
7100;SDS011;67978;48.710;8.720;2023-02-28T00:47:32;3.30;;;1.60;;
7100;SDS011;67978;48.710;8.720;2023-02-28T00:49:59;2.97;;;1.70;;
7100;SDS011;67978;48.710;8.720;2023-02-28T00:52:26;2.30;;;1.50;;
7100;SDS011;67978;48.710;8.720;2023-02-28T00:54:53;3.07;;;1.63;;
7100;SDS011;67978;48.710;8.720;2023-02-28T00:57:20;3.13;;;1.63;;
7100;SDS011;67978;48.710;8.720;2023-02-28T00:59:47;2.30;;;1.40;;
7100;SDS011;67978;48.710;8.720;2023-02-28T01:02:15;2.17;;;1.50;;
7100;SDS011;67978;48.710;8.720;2023-02-28T01:04:43;3.67;;;1.60;;
7100;SDS011;67978;48.710;8.720;2023-02-28T01:07:09;3.13;;;1.40;;
7100;SDS011;67978;48.710;8.720;2023-02-28T01:09:36;3.13;;;1.70;;
7100;SDS011;67978;48.710;8.720;2023-02-28T01:12:03;9.23;;;1.83;;
7100;SDS011;67978;48.710;8.720;2023-02-28T01:14:30;2.87;;;1.70;;
7100;SDS011;67978;48.710;8.720;2023-02-28T01:16:57;3.70;;;1.70;;
7100;SDS011;67978;48.710;8.720;2023-02-28T01:19:25;2.87;;;1.70;;
7100;SDS011;67978;48.710;8.720;2023-02-28T01:21:52;5.30;;;2.07;;
7100;SDS011;67978;48.710;8.720;2023-02-28T01:24:19;2.60;;;1.57;;
7100;SDS011;67978;48.710;8.720;2023-02-28T01:26:46;1.87;;;1.30;;
7100;SDS011;67978;48.710;8.720;2023-02-28T01:29:12;4.03;;;1.90;;
7100;SDS011;67978;48.710;8.720;2023-02-28T01:31:39;3.33;;;1.70;;
7100;SDS011;67978;48.710;8.720;2023-02-28T01:34:06;3.40;;;1.70;;
7100;SDS011;67978;48.710;8.720;2023-02-28T01:36:34;2.10;;;1.70;;
7100;SDS011;67978;48.710;8.720;2023-02-28T01:39:01;4.07;;;2.53;;
7100;SDS011;67978;48.710;8.720;2023-02-28T01:41:30;3.67;;;2.03;;
7100;SDS011;67978;48.710;8.720;2023-02-28T01:44:01;3.07;;;1.90;;
7100;SDS011;67978;48.710;8.720;2023-02-28T01:46:30;4.90;;;2.03;;
7100;SDS011;67978;48.710;8.720;2023-02-28T01:49:01;2.80;;;1.80;;
7100;SDS011;67978;48.710;8.720;2023-02-28T01:51:37;7.40;;;2.20;;
7100;SDS011;67978;48.710;8.720;2023-02-28T01:54:11;2.97;;;2.03;;
7100;SDS011;67978;48.710;8.720;2023-02-28T01:56:43;3.50;;;2.20;;
7100;SDS011;67978;48.710;8.720;2023-02-28T01:59:17;3.03;;;2.10;;
7100;SDS011;67978;48.710;8.720;2023-02-28T02:01:48;4.10;;;1.70;;
7100;SDS011;67978;48.710;8.720;2023-02-28T02:04:15;5.83;;;2.27;;
7100;SDS011;67978;48.710;8.720;2023-02-28T02:06:44;5.57;;;2.40;;
7100;SDS011;67978;48.710;8.720;2023-02-28T02:09:13;6.77;;;2.83;;
7100;SDS011;67978;48.710;8.720;2023-02-28T02:11:40;4.40;;;2.10;;
7100;SDS011;67978;48.710;8.720;2023-02-28T02:14:16;3.37;;;2.30;;
7100;SDS011;67978;48.710;8.720;2023-02-28T02:17:10;3.20;;;2.03;;
7100;SDS011;67978;48.710;8.720;2023-02-28T02:20:00;4.23;;;2.43;;
7100;SDS011;67978;48.710;8.720;2023-02-28T02:26:03;3.63;;;2.20;;
7100;SDS011;67978;48.710;8.720;2023-02-28T02:29:13;5.27;;;2.60;;
7100;SDS011;67978;48.710;8.720;2023-02-28T02:32:16;4.70;;;2.70;;
7100;SDS011;67978;48.710;8.720;2023-02-28T02:35:07;3.93;;;2.67;;
7100;SDS011;67978;48.710;8.720;2023-02-28T02:37:42;4.77;;;2.13;;
7100;SDS011;67978;48.710;8.720;2023-02-28T02:40:14;4.53;;;2.90;;
7100;SDS011;67978;48.710;8.720;2023-02-28T02:42:47;3.77;;;2.17;;
7100;SDS011;67978;48.710;8.720;2023-02-28T02:45:23;5.13;;;2.70;;
7100;SDS011;67978;48.710;8.720;2023-02-28T02:47:53;4.07;;;2.60;;
7100;SDS011;67978;48.710;8.720;2023-02-28T02:50:25;7.13;;;2.60;;
7100;SDS011;67978;48.710;8.720;2023-02-28T02:52:58;4.47;;;2.60;;
7100;SDS011;67978;48.710;8.720;2023-02-28T02:55:28;3.93;;;2.50;;
7100;SDS011;67978;48.710;8.720;2023-02-28T02:57:59;5.67;;;2.50;;
7100;SDS011;67978;48.710;8.720;2023-02-28T03:00:31;3.93;;;2.93;;
7100;SDS011;67978;48.710;8.720;2023-02-28T03:03:01;5.57;;;2.87;;
7100;SDS011;67978;48.710;8.720;2023-02-28T03:05:32;5.50;;;2.90;;
7100;SDS011;67978;48.710;8.720;2023-02-28T03:08:04;4.50;;;2.83;;
7100;SDS011;67978;48.710;8.720;2023-02-28T03:10:33;4.53;;;2.63;;
7100;SDS011;67978;48.710;8.720;2023-02-28T03:13:10;9.00;;;2.90;;
7100;SDS011;67978;48.710;8.720;2023-02-28T03:15:57;6.43;;;2.70;;
7100;SDS011;67978;48.710;8.720;2023-02-28T03:18:37;4.87;;;3.03;;
7100;SDS011;67978;48.710;8.720;2023-02-28T03:21:17;3.63;;;2.67;;
7100;SDS011;67978;48.710;8.720;2023-02-28T03:23:52;3.67;;;2.60;;
7100;SDS011;67978;48.710;8.720;2023-02-28T03:26:25;4.20;;;2.83;;
7100;SDS011;67978;48.710;8.720;2023-02-28T03:28:54;3.70;;;2.67;;
7100;SDS011;67978;48.710;8.720;2023-02-28T03:31:30;4.63;;;2.53;;
7100;SDS011;67978;48.710;8.720;2023-02-28T03:34:03;4.60;;;3.13;;
7100;SDS011;67978;48.710;8.720;2023-02-28T03:36:36;4.83;;;2.80;;
7100;SDS011;67978;48.710;8.720;2023-02-28T03:39:11;4.67;;;2.53;;
7100;SDS011;67978;48.710;8.720;2023-02-28T03:41:43;4.60;;;2.70;;
7100;SDS011;67978;48.710;8.720;2023-02-28T03:44:16;4.23;;;2.77;;
7100;SDS011;67978;48.710;8.720;2023-02-28T03:46:49;7.80;;;2.77;;
7100;SDS011;67978;48.710;8.720;2023-02-28T03:49:22;4.10;;;3.07;;
7100;SDS011;67978;48.710;8.720;2023-02-28T03:51:56;5.10;;;3.20;;
7100;SDS011;67978;48.710;8.720;2023-02-28T03:54:29;6.57;;;3.30;;
7100;SDS011;67978;48.710;8.720;2023-02-28T03:57:02;4.30;;;3.07;;
7100;SDS011;67978;48.710;8.720;2023-02-28T03:59:36;6.93;;;3.57;;
7100;SDS011;67978;48.710;8.720;2023-02-28T04:02:06;4.27;;;3.43;;
7100;SDS011;67978;48.710;8.720;2023-02-28T04:04:33;5.07;;;2.80;;
7100;SDS011;67978;48.710;8.720;2023-02-28T04:07:03;5.90;;;3.00;;
7100;SDS011;67978;48.710;8.720;2023-02-28T04:09:32;3.90;;;2.90;;
7100;SDS011;67978;48.710;8.720;2023-02-28T04:11:58;4.07;;;2.93;;
7100;SDS011;67978;48.710;8.720;2023-02-28T04:14:25;8.93;;;3.90;;
7100;SDS011;67978;48.710;8.720;2023-02-28T04:16:52;5.23;;;3.57;;
7100;SDS011;67978;48.710;8.720;2023-02-28T04:19:19;4.50;;;3.07;;
7100;SDS011;67978;48.710;8.720;2023-02-28T04:21:47;9.87;;;3.43;;
7100;SDS011;67978;48.710;8.720;2023-02-28T04:24:18;7.03;;;3.33;;
7100;SDS011;67978;48.710;8.720;2023-02-28T04:26:49;4.53;;;3.50;;
7100;SDS011;67978;48.710;8.720;2023-02-28T04:29:19;7.30;;;3.60;;
7100;SDS011;67978;48.710;8.720;2023-02-28T04:31:48;6.30;;;3.67;;
7100;SDS011;67978;48.710;8.720;2023-02-28T04:34:15;4.60;;;3.50;;
7100;SDS011;67978;48.710;8.720;2023-02-28T04:36:43;5.73;;;3.70;;
7100;SDS011;67978;48.710;8.720;2023-02-28T04:39:10;5.37;;;3.63;;
7100;SDS011;67978;48.710;8.720;2023-02-28T04:41:39;4.87;;;3.40;;
7100;SDS011;67978;48.710;8.720;2023-02-28T04:44:06;7.20;;;3.47;;
7100;SDS011;67978;48.710;8.720;2023-02-28T04:46:33;6.70;;;4.03;;
7100;SDS011;67978;48.710;8.720;2023-02-28T04:49:00;6.00;;;3.80;;
7100;SDS011;67978;48.710;8.720;2023-02-28T04:51:26;5.63;;;3.93;;
7100;SDS011;67978;48.710;8.720;2023-02-28T04:53:53;5.37;;;3.97;;
7100;SDS011;67978;48.710;8.720;2023-02-28T04:56:21;5.50;;;3.70;;
7100;SDS011;67978;48.710;8.720;2023-02-28T04:58:49;6.43;;;4.17;;
7100;SDS011;67978;48.710;8.720;2023-02-28T05:01:19;6.30;;;3.80;;
7100;SDS011;67978;48.710;8.720;2023-02-28T05:03:49;9.37;;;3.90;;
7100;SDS011;67978;48.710;8.720;2023-02-28T05:06:17;6.30;;;4.43;;
7100;SDS011;67978;48.710;8.720;2023-02-28T05:08:46;5.13;;;3.67;;
7100;SDS011;67978;48.710;8.720;2023-02-28T05:11:15;5.23;;;3.70;;
7100;SDS011;67978;48.710;8.720;2023-02-28T05:13:44;6.13;;;3.70;;
7100;SDS011;67978;48.710;8.720;2023-02-28T05:16:12;5.73;;;4.00;;
7100;SDS011;67978;48.710;8.720;2023-02-28T05:18:39;5.50;;;3.40;;
7100;SDS011;67978;48.710;8.720;2023-02-28T05:21:12;5.20;;;3.53;;
7100;SDS011;67978;48.710;8.720;2023-02-28T05:23:51;9.60;;;4.30;;
7100;SDS011;67978;48.710;8.720;2023-02-28T05:26:19;11.20;;;4.70;;
7100;SDS011;67978;48.710;8.720;2023-02-28T05:28:46;14.93;;;5.70;;
7100;SDS011;67978;48.710;8.720;2023-02-28T05:31:14;6.40;;;4.13;;
7100;SDS011;67978;48.710;8.720;2023-02-28T05:33:41;10.40;;;4.97;;
7100;SDS011;67978;48.710;8.720;2023-02-28T05:36:08;8.83;;;5.43;;
7100;SDS011;67978;48.710;8.720;2023-02-28T05:38:35;4.70;;;3.07;;
7100;SDS011;67978;48.710;8.720;2023-02-28T05:41:04;7.93;;;4.60;;
7100;SDS011;67978;48.710;8.720;2023-02-28T05:43:33;9.47;;;4.60;;
7100;SDS011;67978;48.710;8.720;2023-02-28T05:46:02;8.73;;;4.23;;
7100;SDS011;67978;48.710;8.720;2023-02-28T05:48:31;8.90;;;4.60;;
7100;SDS011;67978;48.710;8.720;2023-02-28T05:50:59;5.97;;;4.20;;
7100;SDS011;67978;48.710;8.720;2023-02-28T05:53:26;7.17;;;4.63;;
7100;SDS011;67978;48.710;8.720;2023-02-28T05:55:53;7.50;;;4.33;;
7100;SDS011;67978;48.710;8.720;2023-02-28T05:58:20;6.97;;;4.23;;
7100;SDS011;67978;48.710;8.720;2023-02-28T06:00:47;7.50;;;4.53;;
7100;SDS011;67978;48.710;8.720;2023-02-28T06:03:14;6.13;;;4.00;;
7100;SDS011;67978;48.710;8.720;2023-02-28T06:05:42;7.20;;;4.67;;
7100;SDS011;67978;48.710;8.720;2023-02-28T06:08:09;6.67;;;4.77;;
7100;SDS011;67978;48.710;8.720;2023-02-28T06:10:36;7.43;;;4.73;;
7100;SDS011;67978;48.710;8.720;2023-02-28T06:13:03;7.23;;;4.50;;
7100;SDS011;67978;48.710;8.720;2023-02-28T06:15:30;5.20;;;4.40;;
7100;SDS011;67978;48.710;8.720;2023-02-28T06:17:58;7.77;;;4.77;;
7100;SDS011;67978;48.710;8.720;2023-02-28T06:20:26;7.73;;;4.97;;
7100;SDS011;67978;48.710;8.720;2023-02-28T06:22:55;6.47;;;4.60;;
7100;SDS011;67978;48.710;8.720;2023-02-28T06:25:23;10.10;;;4.87;;
7100;SDS011;67978;48.710;8.720;2023-02-28T06:27:51;6.33;;;4.47;;
7100;SDS011;67978;48.710;8.720;2023-02-28T06:30:17;8.47;;;5.03;;
7100;SDS011;67978;48.710;8.720;2023-02-28T06:32:51;8.93;;;4.90;;
7100;SDS011;67978;48.710;8.720;2023-02-28T06:35:18;9.87;;;5.37;;
7100;SDS011;67978;48.710;8.720;2023-02-28T06:37:45;8.30;;;5.10;;
7100;SDS011;67978;48.710;8.720;2023-02-28T06:40:14;7.13;;;5.07;;
7100;SDS011;67978;48.710;8.720;2023-02-28T06:42:41;8.20;;;5.57;;
7100;SDS011;67978;48.710;8.720;2023-02-28T06:45:08;8.73;;;4.83;;
7100;SDS011;67978;48.710;8.720;2023-02-28T06:47:37;8.07;;;5.20;;
7100;SDS011;67978;48.710;8.720;2023-02-28T06:50:06;11.97;;;5.70;;
7100;SDS011;67978;48.710;8.720;2023-02-28T06:52:35;24.77;;;11.80;;
7100;SDS011;67978;48.710;8.720;2023-02-28T06:55:02;8.70;;;5.70;;
7100;SDS011;67978;48.710;8.720;2023-02-28T06:57:32;9.63;;;5.30;;
7100;SDS011;67978;48.710;8.720;2023-02-28T07:00:02;11.63;;;6.30;;
7100;SDS011;67978;48.710;8.720;2023-02-28T07:02:32;10.10;;;5.30;;
7100;SDS011;67978;48.710;8.720;2023-02-28T07:05:00;9.63;;;5.10;;
7100;SDS011;67978;48.710;8.720;2023-02-28T07:07:26;9.83;;;5.80;;
7100;SDS011;67978;48.710;8.720;2023-02-28T07:09:53;10.90;;;5.40;;
7100;SDS011;67978;48.710;8.720;2023-02-28T07:12:20;10.33;;;5.63;;
7100;SDS011;67978;48.710;8.720;2023-02-28T07:14:48;8.97;;;5.80;;
7100;SDS011;67978;48.710;8.720;2023-02-28T07:17:15;8.87;;;4.93;;
7100;SDS011;67978;48.710;8.720;2023-02-28T07:19:42;8.70;;;5.07;;
7100;SDS011;67978;48.710;8.720;2023-02-28T07:22:08;11.17;;;5.53;;
7100;SDS011;67978;48.710;8.720;2023-02-28T07:24:35;8.10;;;5.00;;
7100;SDS011;67978;48.710;8.720;2023-02-28T07:27:03;9.87;;;5.70;;
7100;SDS011;67978;48.710;8.720;2023-02-28T07:29:30;9.83;;;5.40;;
7100;SDS011;67978;48.710;8.720;2023-02-28T07:31:58;7.13;;;4.93;;
7100;SDS011;67978;48.710;8.720;2023-02-28T07:34:25;7.63;;;4.80;;
7100;SDS011;67978;48.710;8.720;2023-02-28T07:36:52;9.37;;;5.53;;
7100;SDS011;67978;48.710;8.720;2023-02-28T07:39:19;12.37;;;5.67;;
7100;SDS011;67978;48.710;8.720;2023-02-28T07:41:47;9.50;;;5.77;;
7100;SDS011;67978;48.710;8.720;2023-02-28T07:44:13;7.47;;;5.50;;
7100;SDS011;67978;48.710;8.720;2023-02-28T07:46:40;9.90;;;5.83;;
7100;SDS011;67978;48.710;8.720;2023-02-28T07:49:08;8.87;;;5.40;;
7100;SDS011;67978;48.710;8.720;2023-02-28T07:51:35;8.17;;;5.40;;
7100;SDS011;67978;48.710;8.720;2023-02-28T07:54:02;8.53;;;5.93;;
7100;SDS011;67978;48.710;8.720;2023-02-28T07:56:30;7.67;;;5.13;;
7100;SDS011;67978;48.710;8.720;2023-02-28T07:58:57;10.97;;;5.87;;
7100;SDS011;67978;48.710;8.720;2023-02-28T08:01:24;8.57;;;5.77;;
7100;SDS011;67978;48.710;8.720;2023-02-28T08:03:51;8.77;;;5.40;;
7100;SDS011;67978;48.710;8.720;2023-02-28T08:06:21;10.27;;;5.47;;
7100;SDS011;67978;48.710;8.720;2023-02-28T08:08:50;7.67;;;5.00;;
7100;SDS011;67978;48.710;8.720;2023-02-28T08:11:17;9.93;;;5.50;;
7100;SDS011;67978;48.710;8.720;2023-02-28T08:13:44;9.43;;;5.80;;
7100;SDS011;67978;48.710;8.720;2023-02-28T08:16:12;7.70;;;5.03;;
7100;SDS011;67978;48.710;8.720;2023-02-28T08:18:42;9.03;;;5.83;;
7100;SDS011;67978;48.710;8.720;2023-02-28T08:21:09;8.73;;;5.10;;
7100;SDS011;67978;48.710;8.720;2023-02-28T08:23:38;10.33;;;5.53;;
7100;SDS011;67978;48.710;8.720;2023-02-28T08:26:05;9.57;;;5.73;;
7100;SDS011;67978;48.710;8.720;2023-02-28T08:28:32;13.83;;;7.20;;
7100;SDS011;67978;48.710;8.720;2023-02-28T08:30:59;13.43;;;5.37;;
7100;SDS011;67978;48.710;8.720;2023-02-28T08:33:26;10.13;;;6.20;;
7100;SDS011;67978;48.710;8.720;2023-02-28T08:35:54;11.37;;;6.33;;
7100;SDS011;67978;48.710;8.720;2023-02-28T08:38:21;8.53;;;5.60;;
7100;SDS011;67978;48.710;8.720;2023-02-28T08:40:50;11.10;;;6.10;;
7100;SDS011;67978;48.710;8.720;2023-02-28T08:43:23;8.97;;;6.13;;
7100;SDS011;67978;48.710;8.720;2023-02-28T08:45:51;11.50;;;5.53;;
7100;SDS011;67978;48.710;8.720;2023-02-28T08:48:18;10.60;;;5.87;;
7100;SDS011;67978;48.710;8.720;2023-02-28T08:50:44;10.73;;;5.97;;
7100;SDS011;67978;48.710;8.720;2023-02-28T08:53:21;12.60;;;5.90;;
7100;SDS011;67978;48.710;8.720;2023-02-28T08:55:56;8.63;;;5.50;;
7100;SDS011;67978;48.710;8.720;2023-02-28T08:58:24;9.53;;;5.60;;
7100;SDS011;67978;48.710;8.720;2023-02-28T09:00:51;10.23;;;6.27;;
7100;SDS011;67978;48.710;8.720;2023-02-28T09:03:18;10.17;;;5.70;;
7100;SDS011;67978;48.710;8.720;2023-02-28T09:05:51;10.73;;;6.23;;
7100;SDS011;67978;48.710;8.720;2023-02-28T09:08:20;9.33;;;5.97;;
7100;SDS011;67978;48.710;8.720;2023-02-28T09:10:47;9.87;;;6.20;;
7100;SDS011;67978;48.710;8.720;2023-02-28T09:13:15;11.20;;;6.03;;
7100;SDS011;67978;48.710;8.720;2023-02-28T09:15:42;10.10;;;5.73;;
7100;SDS011;67978;48.710;8.720;2023-02-28T09:18:09;9.90;;;6.17;;
7100;SDS011;67978;48.710;8.720;2023-02-28T09:20:37;12.47;;;5.87;;
7100;SDS011;67978;48.710;8.720;2023-02-28T09:23:05;11.87;;;5.63;;
7100;SDS011;67978;48.710;8.720;2023-02-28T09:25:32;10.50;;;5.77;;
7100;SDS011;67978;48.710;8.720;2023-02-28T09:28:01;8.17;;;5.87;;
7100;SDS011;67978;48.710;8.720;2023-02-28T09:30:30;11.80;;;5.60;;
7100;SDS011;67978;48.710;8.720;2023-02-28T09:32:57;8.03;;;5.73;;
7100;SDS011;67978;48.710;8.720;2023-02-28T09:35:24;9.57;;;5.93;;
7100;SDS011;67978;48.710;8.720;2023-02-28T09:37:52;9.83;;;6.27;;
7100;SDS011;67978;48.710;8.720;2023-02-28T09:40:20;14.37;;;6.00;;
7100;SDS011;67978;48.710;8.720;2023-02-28T09:42:51;12.13;;;7.07;;
7100;SDS011;67978;48.710;8.720;2023-02-28T09:45:22;10.80;;;6.30;;
7100;SDS011;67978;48.710;8.720;2023-02-28T09:47:53;13.77;;;6.10;;
7100;SDS011;67978;48.710;8.720;2023-02-28T09:50:28;9.60;;;6.23;;
7100;SDS011;67978;48.710;8.720;2023-02-28T09:53:02;11.13;;;6.60;;
7100;SDS011;67978;48.710;8.720;2023-02-28T09:55:37;9.10;;;6.07;;
7100;SDS011;67978;48.710;8.720;2023-02-28T09:58:10;9.23;;;5.87;;
7100;SDS011;67978;48.710;8.720;2023-02-28T10:00:46;13.73;;;6.23;;
7100;SDS011;67978;48.710;8.720;2023-02-28T10:03:26;9.93;;;5.97;;
7100;SDS011;67978;48.710;8.720;2023-02-28T10:05:59;10.07;;;5.87;;
7100;SDS011;67978;48.710;8.720;2023-02-28T10:08:34;13.43;;;6.73;;
7100;SDS011;67978;48.710;8.720;2023-02-28T10:11:07;9.73;;;6.00;;
7100;SDS011;67978;48.710;8.720;2023-02-28T10:13:40;12.77;;;6.70;;
7100;SDS011;67978;48.710;8.720;2023-02-28T10:16:19;13.00;;;6.57;;
7100;SDS011;67978;48.710;8.720;2023-02-28T10:18:54;12.70;;;7.10;;
7100;SDS011;67978;48.710;8.720;2023-02-28T10:21:26;11.23;;;6.70;;
7100;SDS011;67978;48.710;8.720;2023-02-28T10:24:02;10.17;;;6.80;;
7100;SDS011;67978;48.710;8.720;2023-02-28T10:26:40;9.73;;;6.23;;
7100;SDS011;67978;48.710;8.720;2023-02-28T10:29:11;11.70;;;6.07;;
7100;SDS011;67978;48.710;8.720;2023-02-28T10:31:38;10.60;;;6.77;;
7100;SDS011;67978;48.710;8.720;2023-02-28T10:34:08;13.63;;;7.47;;
7100;SDS011;67978;48.710;8.720;2023-02-28T10:36:38;10.50;;;6.77;;
7100;SDS011;67978;48.710;8.720;2023-02-28T10:42:03;11.57;;;6.70;;
7100;SDS011;67978;48.710;8.720;2023-02-28T10:44:31;11.53;;;6.63;;
7100;SDS011;67978;48.710;8.720;2023-02-28T10:46:58;11.03;;;6.00;;
7100;SDS011;67978;48.710;8.720;2023-02-28T10:49:28;11.40;;;6.93;;
7100;SDS011;67978;48.710;8.720;2023-02-28T10:51:56;11.07;;;6.83;;
7100;SDS011;67978;48.710;8.720;2023-02-28T10:54:27;13.70;;;7.63;;
7100;SDS011;67978;48.710;8.720;2023-02-28T10:57:06;10.93;;;7.03;;
7100;SDS011;67978;48.710;8.720;2023-02-28T10:59:43;10.83;;;6.40;;
7100;SDS011;67978;48.710;8.720;2023-02-28T11:02:29;9.07;;;6.30;;
7100;SDS011;67978;48.710;8.720;2023-02-28T11:05:00;11.60;;;6.87;;
7100;SDS011;67978;48.710;8.720;2023-02-28T11:07:27;16.23;;;10.53;;
7100;SDS011;67978;48.710;8.720;2023-02-28T11:09:55;21.90;;;11.77;;
7100;SDS011;67978;48.710;8.720;2023-02-28T11:12:25;38.07;;;19.77;;
7100;SDS011;67978;48.710;8.720;2023-02-28T11:14:57;13.30;;;7.53;;
7100;SDS011;67978;48.710;8.720;2023-02-28T11:17:28;10.80;;;6.80;;
7100;SDS011;67978;48.710;8.720;2023-02-28T11:19:58;13.47;;;9.90;;
7100;SDS011;67978;48.710;8.720;2023-02-28T11:22:29;11.10;;;8.20;;
7100;SDS011;67978;48.710;8.720;2023-02-28T11:25:01;13.47;;;7.77;;
7100;SDS011;67978;48.710;8.720;2023-02-28T11:27:44;10.10;;;6.90;;
7100;SDS011;67978;48.710;8.720;2023-02-28T11:30:28;12.03;;;6.80;;
7100;SDS011;67978;48.710;8.720;2023-02-28T11:33:01;11.33;;;6.33;;
7100;SDS011;67978;48.710;8.720;2023-02-28T11:35:48;10.37;;;6.50;;
7100;SDS011;67978;48.710;8.720;2023-02-28T11:38:16;9.90;;;6.50;;
7100;SDS011;67978;48.710;8.720;2023-02-28T11:40:44;13.30;;;7.23;;
7100;SDS011;67978;48.710;8.720;2023-02-28T11:43:25;20.40;;;10.30;;
7100;SDS011;67978;48.710;8.720;2023-02-28T11:46:06;17.13;;;9.07;;
7100;SDS011;67978;48.710;8.720;2023-02-28T11:48:48;17.80;;;9.07;;
7100;SDS011;67978;48.710;8.720;2023-02-28T11:51:28;24.90;;;11.40;;
7100;SDS011;67978;48.710;8.720;2023-02-28T11:54:03;20.40;;;10.10;;
7100;SDS011;67978;48.710;8.720;2023-02-28T11:56:46;16.33;;;8.53;;
7100;SDS011;67978;48.710;8.720;2023-02-28T11:59:23;13.70;;;8.33;;
7100;SDS011;67978;48.710;8.720;2023-02-28T12:02:20;11.27;;;7.00;;
7100;SDS011;67978;48.710;8.720;2023-02-28T12:04:52;11.07;;;6.47;;
7100;SDS011;67978;48.710;8.720;2023-02-28T12:07:50;9.87;;;6.37;;
7100;SDS011;67978;48.710;8.720;2023-02-28T12:10:30;11.87;;;6.70;;
7100;SDS011;67978;48.710;8.720;2023-02-28T12:13:18;11.10;;;6.53;;
7100;SDS011;67978;48.710;8.720;2023-02-28T12:16:11;13.83;;;7.57;;
7100;SDS011;67978;48.710;8.720;2023-02-28T12:19:04;19.43;;;10.70;;
7100;SDS011;67978;48.710;8.720;2023-02-28T12:21:49;13.37;;;8.07;;
7100;SDS011;67978;48.710;8.720;2023-02-28T12:24:52;11.57;;;7.40;;
7100;SDS011;67978;48.710;8.720;2023-02-28T12:27:36;12.20;;;6.93;;
7100;SDS011;67978;48.710;8.720;2023-02-28T12:30:12;11.50;;;7.47;;
7100;SDS011;67978;48.710;8.720;2023-02-28T12:32:44;12.63;;;6.77;;
7100;SDS011;67978;48.710;8.720;2023-02-28T12:35:14;11.30;;;7.63;;
7100;SDS011;67978;48.710;8.720;2023-02-28T12:37:49;10.90;;;6.87;;
7100;SDS011;67978;48.710;8.720;2023-02-28T12:40:24;10.57;;;6.67;;
7100;SDS011;67978;48.710;8.720;2023-02-28T12:42:56;11.37;;;7.40;;
7100;SDS011;67978;48.710;8.720;2023-02-28T12:45:27;14.97;;;7.03;;
7100;SDS011;67978;48.710;8.720;2023-02-28T12:48:05;8.37;;;5.97;;
7100;SDS011;67978;48.710;8.720;2023-02-28T12:50:38;10.93;;;7.13;;
7100;SDS011;67978;48.710;8.720;2023-02-28T12:53:06;10.43;;;6.83;;
7100;SDS011;67978;48.710;8.720;2023-02-28T12:55:43;9.83;;;6.80;;
7100;SDS011;67978;48.710;8.720;2023-02-28T12:58:19;11.83;;;6.93;;
7100;SDS011;67978;48.710;8.720;2023-02-28T13:01:01;8.17;;;6.67;;
7100;SDS011;67978;48.710;8.720;2023-02-28T13:03:51;9.47;;;6.27;;
7100;SDS011;67978;48.710;8.720;2023-02-28T13:06:41;8.87;;;6.17;;
7100;SDS011;67978;48.710;8.720;2023-02-28T13:09:24;10.73;;;6.73;;
7100;SDS011;67978;48.710;8.720;2023-02-28T13:11:53;14.30;;;9.97;;
7100;SDS011;67978;48.710;8.720;2023-02-28T13:14:23;21.07;;;11.93;;
7100;SDS011;67978;48.710;8.720;2023-02-28T13:17:00;11.40;;;7.03;;
7100;SDS011;67978;48.710;8.720;2023-02-28T13:19:36;12.30;;;7.33;;
7100;SDS011;67978;48.710;8.720;2023-02-28T13:22:10;10.13;;;6.90;;
7100;SDS011;67978;48.710;8.720;2023-02-28T13:24:46;10.13;;;7.27;;
7100;SDS011;67978;48.710;8.720;2023-02-28T13:30:49;12.67;;;7.17;;
7100;SDS011;67978;48.710;8.720;2023-02-28T13:33:29;11.20;;;7.40;;
7100;SDS011;67978;48.710;8.720;2023-02-28T13:36:06;11.40;;;7.20;;
7100;SDS011;67978;48.710;8.720;2023-02-28T13:38:52;10.10;;;7.43;;
7100;SDS011;67978;48.710;8.720;2023-02-28T13:44:13;11.03;;;7.00;;
7100;SDS011;67978;48.710;8.720;2023-02-28T13:49:49;10.47;;;7.00;;
7100;SDS011;67978;48.710;8.720;2023-02-28T13:52:18;9.73;;;6.67;;
7100;SDS011;67978;48.710;8.720;2023-02-28T13:54:54;11.07;;;7.20;;
7100;SDS011;67978;48.710;8.720;2023-02-28T13:57:42;10.03;;;6.90;;
7100;SDS011;67978;48.710;8.720;2023-02-28T14:00:27;9.50;;;6.83;;
7100;SDS011;67978;48.710;8.720;2023-02-28T14:03:10;12.50;;;7.03;;
7100;SDS011;67978;48.710;8.720;2023-02-28T14:06:08;9.13;;;6.27;;
7100;SDS011;67978;48.710;8.720;2023-02-28T14:08:51;14.87;;;7.03;;
7100;SDS011;67978;48.710;8.720;2023-02-28T14:11:24;12.00;;;7.37;;
7100;SDS011;67978;48.710;8.720;2023-02-28T14:13:56;12.13;;;6.37;;
7100;SDS011;67978;48.710;8.720;2023-02-28T14:16:25;10.50;;;6.60;;
7100;SDS011;67978;48.710;8.720;2023-02-28T14:18:56;10.53;;;7.30;;
7100;SDS011;67978;48.710;8.720;2023-02-28T14:21:27;11.10;;;7.10;;
7100;SDS011;67978;48.710;8.720;2023-02-28T14:24:08;8.30;;;5.97;;
7100;SDS011;67978;48.710;8.720;2023-02-28T14:27:15;10.20;;;6.70;;
7100;SDS011;67978;48.710;8.720;2023-02-28T14:29:59;10.53;;;6.70;;
7100;SDS011;67978;48.710;8.720;2023-02-28T14:33:00;9.93;;;6.37;;
7100;SDS011;67978;48.710;8.720;2023-02-28T14:35:48;10.03;;;6.57;;
7100;SDS011;67978;48.710;8.720;2023-02-28T14:38:40;10.17;;;7.30;;
7100;SDS011;67978;48.710;8.720;2023-02-28T14:41:16;11.90;;;6.93;;
7100;SDS011;67978;48.710;8.720;2023-02-28T14:43:49;9.60;;;6.90;;
7100;SDS011;67978;48.710;8.720;2023-02-28T14:46:22;9.20;;;6.67;;
7100;SDS011;67978;48.710;8.720;2023-02-28T14:48:54;10.83;;;6.67;;
7100;SDS011;67978;48.710;8.720;2023-02-28T14:51:22;9.17;;;6.33;;
7100;SDS011;67978;48.710;8.720;2023-02-28T14:53:53;8.90;;;6.50;;
7100;SDS011;67978;48.710;8.720;2023-02-28T14:56:26;9.93;;;7.37;;
7100;SDS011;67978;48.710;8.720;2023-02-28T14:59:01;9.43;;;6.30;;
7100;SDS011;67978;48.710;8.720;2023-02-28T15:01:28;9.07;;;6.43;;
7100;SDS011;67978;48.710;8.720;2023-02-28T15:03:59;8.87;;;6.77;;
7100;SDS011;67978;48.710;8.720;2023-02-28T15:06:29;9.13;;;5.90;;
7100;SDS011;67978;48.710;8.720;2023-02-28T15:09:07;8.87;;;6.17;;
7100;SDS011;67978;48.710;8.720;2023-02-28T15:11:41;12.57;;;6.50;;
7100;SDS011;67978;48.710;8.720;2023-02-28T15:14:14;10.03;;;6.60;;
7100;SDS011;67978;48.710;8.720;2023-02-28T15:16:45;9.87;;;6.70;;
7100;SDS011;67978;48.710;8.720;2023-02-28T15:19:20;9.67;;;6.70;;
7100;SDS011;67978;48.710;8.720;2023-02-28T15:21:50;11.13;;;6.87;;
7100;SDS011;67978;48.710;8.720;2023-02-28T15:24:22;12.53;;;6.97;;
7100;SDS011;67978;48.710;8.720;2023-02-28T15:27:00;9.43;;;6.30;;
7100;SDS011;67978;48.710;8.720;2023-02-28T15:29:32;9.30;;;6.80;;
7100;SDS011;67978;48.710;8.720;2023-02-28T15:32:16;10.53;;;6.57;;
7100;SDS011;67978;48.710;8.720;2023-02-28T15:34:52;10.00;;;6.40;;
7100;SDS011;67978;48.710;8.720;2023-02-28T15:37:27;11.93;;;6.80;;
7100;SDS011;67978;48.710;8.720;2023-02-28T15:40:05;8.70;;;6.57;;